Time;durP1;ratioP1;P1;durP2;ratioP2;P2;SDS_P1;SDS_P2;PMS_P1;PMS_P2;Temp;Humidity;BMP_temperature;BMP_pressure;BME280_temperature;BME280_humidity;BME280_pressure;Samples;Min_cycle;Max_cycle;Signal;HPM_P1;HPM_P2
2023/05/22 00:00:15;;;;;;;28.20;19.93;;;;;;;29.25;69.99;100921.28;5102617;27;70189;-38
2023/05/22 00:02:47;;;;;;;29.30;19.13;;;;;;;29.53;70.37;100944.56;5096687;27;66102;-38
2023/05/22 00:05:19;;;;;;;26.23;18.67;;;;;;;29.58;70.25;100942.06;5095199;27;69791;-38
2023/05/22 00:07:51;;;;;;;33.17;18.35;;;;;;;29.62;70.43;100946.84;5097162;27;67217;-39
2023/05/22 00:10:22;;;;;;;27.38;18.50;;;;;;;29.69;71.13;100949.56;5085371;27;69131;-38
2023/05/22 00:12:53;;;;;;;31.67;21.85;;;;;;;29.60;73.64;100934.59;5099256;27;65821;-38
2023/05/22 00:15:24;;;;;;;38.97;21.33;;;;;;;29.75;72.60;100956.81;5106973;27;70187;-38
2023/05/22 00:17:54;;;;;;;28.00;19.80;;;;;;;29.74;73.26;100952.47;5103625;27;66624;-39
2023/05/22 00:20:26;;;;;;;27.92;19.45;;;;;;;29.84;72.45;100954.75;5104983;27;69714;-38
2023/05/22 00:22:57;;;;;;;26.63;19.10;;;;;;;29.91;72.06;100960.97;5101564;27;66928;-38
2023/05/22 00:25:28;;;;;;;27.77;18.08;;;;;;;29.91;73.16;100957.44;5106887;27;69423;-38
2023/05/22 00:27:59;;;;;;;27.80;18.80;;;;;;;29.95;72.71;100964.91;5108233;27;66044;-38
2023/05/22 00:30:31;;;;;;;25.45;18.98;;;;;;;29.95;73.32;100959.50;5102822;27;70527;-38
2023/05/22 00:33:02;;;;;;;18.07;16.13;;;;;;;29.99;72.58;100970.72;5098763;27;65596;-38
2023/05/22 00:35:33;;;;;;;27.23;18.13;;;;;;;29.98;73.04;100974.50;5103283;27;70221;-37
2023/05/22 00:38:05;;;;;;;23.05;17.30;;;;;;;30.04;72.89;100968.22;5104868;27;66334;-38
2023/05/22 00:40:36;;;;;;;25.00;17.63;;;;;;;30.04;73.17;100973.63;5095785;27;69904;-37
2023/05/22 00:43:08;;;;;;;22.10;17.07;;;;;;;30.06;73.33;100974.22;5094831;27;65925;-37
2023/05/22 00:45:39;;;;;;;24.27;17.88;;;;;;;30.11;73.77;100969.00;5095407;27;70167;-38
2023/05/22 00:48:11;;;;;;;15.65;13.40;;;;;;;30.07;70.42;100962.38;5101843;27;66461;-37
2023/05/22 00:50:42;;;;;;;;;;;;;;;29.88;72.80;100983.03;5112652;27;69590;-38
2023/05/22 00:53:14;;;;;;;15.57;11.80;;;;;;;30.16;69.82;100971.91;5098166;27;65445;-38
2023/05/22 00:55:46;;;;;;;13.35;12.15;;;;;;;30.20;69.65;100962.34;5094880;27;70199;-38
2023/05/22 00:58:17;;;;;;;17.07;12.57;;;;;;;30.11;69.16;100950.06;5099566;27;66535;-38
2023/05/22 01:00:49;;;;;;;13.18;11.15;;;;;;;30.24;69.11;100965.47;5102031;27;70516;-38
2023/05/22 01:03:24;;;;;;;12.18;11.07;;;;;;;30.26;69.12;100961.50;5098692;27;66132;-38
2023/05/22 01:05:57;;;;;;;11.80;10.93;;;;;;;30.16;68.67;100939.44;5098723;27;70412;-39
2023/05/22 01:08:28;;;;;;;11.70;10.85;;;;;;;30.31;68.47;100963.56;5094392;27;65743;-38
2023/05/22 01:11:24;;;;;;;11.23;10.45;;;;;;;30.33;68.07;100974.19;5102067;27;69354;-38
2023/05/22 01:14:24;;;;;;;12.30;11.15;;;;;;;30.30;68.53;100977.31;5096121;27;65555;-37
2023/05/22 01:17:21;;;;;;;11.23;10.38;;;;;;;29.91;67.94;100911.47;5098511;27;69952;-37
2023/05/22 01:20:25;;;;;;;11.85;10.35;;;;;;;30.34;68.30;100975.84;5099178;27;66936;-37
2023/05/22 01:23:25;;;;;;;11.40;10.23;;;;;;;30.39;67.84;100987.66;5106490;27;70042;-38
2023/05/22 01:26:08;;;;;;;12.15;10.80;;;;;;;30.44;67.60;100989.75;5104324;27;66599;-38
2023/05/22 01:28:55;;;;;;;11.23;10.23;;;;;;;30.49;67.56;100981.81;5099766;27;69345;-37
2023/05/22 01:31:30;;;;;;;11.18;10.07;;;;;;;30.00;66.71;100893.94;5115207;27;66568;-37
2023/05/22 01:34:03;;;;;;;10.15;9.43;;;;;;;30.14;67.06;100911.78;5094869;27;70367;-37
2023/05/22 01:36:36;;;;;;;10.65;9.65;;;;;;;30.60;66.65;100983.84;5115562;27;65719;-37
2023/05/22 01:39:08;;;;;;;10.23;9.43;;;;;;;30.47;66.58;100963.06;5114537;27;70390;-38
2023/05/22 01:41:40;;;;;;;11.05;10.05;;;;;;;30.15;66.69;100908.03;5095300;27;65156;-43
2023/05/22 01:44:11;;;;;;;9.77;8.98;;;;;;;30.67;66.50;100983.81;5112302;27;70437;-37
2023/05/22 01:46:42;;;;;;;9.65;8.95;;;;;;;30.56;66.51;100958.22;5115030;27;66153;-38
2023/05/22 01:49:14;;;;;;;10.57;9.60;;;;;;;30.68;66.36;100974.66;5104400;27;69654;-37
2023/05/22 01:52:08;;;;;;;10.23;9.23;;;;;;;30.62;66.45;100979.06;5105198;27;65863;-38
2023/05/22 01:55:02;;;;;;;9.45;8.77;;;;;;;30.46;66.71;100939.75;5090138;27;69076;-37
2023/05/22 01:57:35;;;;;;;9.40;8.70;;;;;;;30.77;66.41;100984.16;5095366;27;66155;-38
2023/05/22 02:00:13;;;;;;;9.40;8.80;;;;;;;30.66;66.03;100966.72;5095034;27;69917;-38
2023/05/22 02:02:50;;;;;;;10.35;8.60;;;;;;;30.84;65.86;100992.28;5099580;27;65504;-38
2023/05/22 02:05:24;;;;;;;9.23;8.52;;;;;;;30.86;65.78;100982.88;5098039;27;69646;-38
2023/05/22 02:08:00;;;;;;;8.90;8.20;;;;;;;30.46;65.79;100911.88;5097279;27;65367;-39
2023/05/22 02:10:33;;;;;;;10.27;9.30;;;;;;;30.81;65.49;100962.91;5101272;27;70829;-38
2023/05/22 02:13:04;;;;;;;10.35;8.80;;;;;;;30.94;65.93;100981.81;5096530;27;66044;-38
2023/05/22 02:15:35;;;;;;;9.07;8.40;;;;;;;30.92;65.35;100983.88;5118342;27;69706;-39
2023/05/22 02:18:12;;;;;;;8.27;7.70;;;;;;;31.01;65.71;100989.88;5084971;27;66017;-38
2023/05/22 02:20:46;;;;;;;8.93;7.95;;;;;;;30.69;65.11;100931.09;5109787;27;69764;-37
2023/05/22 02:23:16;;;;;;;;;;;;;;;30.76;66.43;100981.66;5096419;27;66396;-37
2023/05/22 02:25:46;;;;;;;8.93;8.13;;;;;;;31.04;65.51;100984.88;5081312;27;69539;-37
2023/05/22 02:28:18;;;;;;;8.82;8.18;;;;;;;31.08;65.13;100983.38;5083634;27;65826;-38
2023/05/22 02:30:49;;;;;;;8.73;8.05;;;;;;;31.12;65.33;100987.31;5077458;27;69004;-38
2023/05/22 02:33:20;;;;;;;7.90;7.40;;;;;;;31.15;64.63;100980.63;5088057;27;66237;-38
2023/05/22 02:35:51;;;;;;;8.00;7.50;;;;;;;31.19;64.73;100986.44;5093618;27;69313;-38
2023/05/22 02:38:22;;;;;;;8.18;7.40;;;;;;;31.21;64.86;100990.59;5083564;27;66246;-38
2023/05/22 02:40:53;;;;;;;7.40;7.00;;;;;;;31.26;64.54;100981.78;5095220;27;69252;-37
2023/05/22 02:43:24;;;;;;;7.60;7.10;;;;;;;31.30;64.46;100985.72;5102620;27;65865;-38
2023/05/22 02:45:55;;;;;;;8.23;7.53;;;;;;;31.32;64.11;100970.06;5102767;27;69877;-37
2023/05/22 02:48:28;;;;;;;7.95;6.97;;;;;;;31.32;64.26;100973.59;5101782;27;66756;-38
2023/05/22 02:50:59;;;;;;;6.88;6.47;;;;;;;31.39;64.43;100981.69;5102808;27;69420;-38
2023/05/22 02:53:29;;;;;;;7.57;6.93;;;;;;;31.43;63.92;100982.94;5103801;27;66761;-38
2023/05/22 02:56:01;;;;;;;7.78;7.00;;;;;;;31.39;63.97;100965.44;5085387;27;67582;-37
2023/05/22 02:58:32;;;;;;;6.78;6.38;;;;;;;31.47;64.04;100969.75;5101513;27;65543;-37
2023/05/22 03:01:10;;;;;;;7.18;6.68;;;;;;;31.50;64.04;100972.84;5081968;27;70564;-38
2023/05/22 03:03:42;;;;;;;7.32;6.82;;;;;;;31.54;63.79;100963.22;5099163;27;66219;-38
2023/05/22 03:06:14;;;;;;;7.57;6.85;;;;;;;31.58;63.58;100969.84;5101523;27;70003;-37
2023/05/22 03:08:47;;;;;;;7.35;6.80;;;;;;;31.60;63.98;100959.63;5113189;27;66860;-38
2023/05/22 03:11:20;;;;;;;6.95;6.55;;;;;;;31.64;63.61;100956.47;5100271;27;70216;-38
2023/05/22 03:13:51;;;;;;;8.02;7.30;;;;;;;31.50;63.37;100921.34;5101266;27;66233;-38
2023/05/22 03:16:22;;;;;;;7.13;6.57;;;;;;;31.58;63.76;100941.91;5100494;27;69752;-37
2023/05/22 03:19:13;;;;;;;6.50;6.10;;;;;;;31.12;63.58;100865.38;5100037;27;66752;-37
2023/05/22 03:21:47;;;;;;;7.13;6.63;;;;;;;31.69;63.49;100938.47;5096761;27;70082;-37
2023/05/22 03:24:17;;;;;;;6.60;6.10;;;;;;;31.71;63.26;100935.53;5084159;27;66785;-40
2023/05/22 03:26:49;;;;;;;12.83;6.47;;;;;;;31.61;63.36;100915.16;5074696;28;68297;-39
2023/05/22 03:29:28;;;;;;;7.10;6.60;;;;;;;31.78;63.24;100939.00;5094330;27;66819;-37
2023/05/22 03:31:59;;;;;;;6.50;6.10;;;;;;;31.31;63.18;100866.22;5082437;27;71228;-38
2023/05/22 03:34:31;;;;;;;6.63;6.22;;;;;;;31.80;63.08;100940.44;5099673;27;66262;-37
2023/05/22 03:37:03;;;;;;;6.63;6.18;;;;;;;31.81;63.03;100924.97;5097708;27;70554;-37
2023/05/22 03:39:34;;;;;;;7.22;6.63;;;;;;;31.56;62.97;100876.22;5083424;27;66399;-37
2023/05/22 03:42:17;;;;;;;7.10;6.47;;;;;;;31.85;62.83;100912.63;5099873;27;70745;-37
2023/05/22 03:44:48;;;;;;;7.10;6.50;;;;;;;31.87;63.15;100918.63;5099117;27;65955;-37
2023/05/22 03:47:20;;;;;;;6.40;6.00;;;;;;;31.92;62.85;100913.41;5100683;27;70426;-37
2023/05/22 03:49:51;;;;;;;6.57;6.18;;;;;;;31.91;63.01;100910.91;5098914;27;66310;-37
2023/05/22 03:52:23;;;;;;;8.93;6.20;;;;;;;31.96;62.72;100917.34;5094783;27;70249;-37
2023/05/22 03:54:54;;;;;;;7.00;6.25;;;;;;;31.98;62.62;100909.81;5099625;27;66049;-37
2023/05/22 03:57:26;;;;;;;6.53;6.13;;;;;;;31.99;62.69;100914.16;5096270;27;71053;-37
2023/05/22 04:00:01;;;;;;;6.68;6.07;;;;;;;32.00;62.64;100912.28;5093180;27;66798;-38
2023/05/22 04:02:43;;;;;;;5.63;5.22;;;;;;;32.04;62.71;100917.03;5090590;27;69456;-38
2023/05/22 04:05:14;;;;;;;6.35;5.95;;;;;;;32.06;62.41;100919.50;5091313;27;66443;-38
2023/05/22 04:07:46;;;;;;;6.60;6.10;;;;;;;32.07;62.50;100915.75;5096907;27;69733;-38
2023/05/22 04:10:19;;;;;;;6.30;5.80;;;;;;;32.11;62.26;100908.78;5118030;27;65547;-38
2023/05/22 04:12:51;;;;;;;5.82;5.43;;;;;;;32.13;62.21;100889.59;5096117;27;70077;-38
2023/05/22 04:15:22;;;;;;;6.40;6.00;;;;;;;32.17;62.38;100890.78;5098808;27;65908;-38
2023/05/22 04:17:54;;;;;;;6.38;5.97;;;;;;;32.18;62.30;100876.13;5098622;27;70320;-37
2023/05/22 04:20:25;;;;;;;6.10;5.65;;;;;;;32.16;62.30;100873.66;5082003;27;67297;-37
2023/05/22 04:22:57;;;;;;;5.88;5.38;;;;;;;32.23;62.12;100879.00;5101181;27;69907;-38
2023/05/22 04:25:28;;;;;;;6.00;5.50;;;;;;;32.16;62.30;100862.81;5104869;27;64725;-38
2023/05/22 04:28:03;;;;;;;6.07;5.57;;;;;;;32.25;61.72;100868.75;5096670;27;69534;-41
2023/05/22 04:30:35;;;;;;;5.85;5.55;;;;;;;32.29;61.83;100872.66;5096229;27;66462;-40
2023/05/22 04:33:07;;;;;;;5.97;5.57;;;;;;;32.21;62.09;100860.25;5092810;27;70183;-37
2023/05/22 04:35:39;;;;;;;5.80;5.40;;;;;;;32.31;61.97;100867.81;5105174;27;66389;-37
2023/05/22 04:38:11;;;;;;;5.80;5.40;;;;;;;32.32;61.67;100863.19;5099243;27;69491;-39
2023/05/22 04:40:43;;;;;;;5.40;5.10;;;;;;;32.36;61.71;100867.13;5101226;27;65391;-38
2023/05/22 04:43:17;;;;;;;5.68;5.28;;;;;;;32.36;61.42;100857.09;5098749;27;70148;-38
2023/05/22 04:45:48;;;;;;;6.00;5.60;;;;;;;32.34;61.53;100839.38;5099493;27;66738;-39
2023/05/22 04:48:22;;;;;;;6.32;5.82;;;;;;;32.44;61.64;100843.19;5106159;27;70237;-38
2023/05/22 04:50:53;;;;;;;5.77;5.07;;;;;;;32.41;61.28;100832.81;5098146;27;66627;-38
2023/05/22 04:53:26;;;;;;;6.05;5.65;;;;;;;32.45;61.45;100836.69;5094296;27;70276;-39
2023/05/22 04:55:57;;;;;;;5.43;5.03;;;;;;;32.39;61.31;100818.63;5109129;27;66664;-38
2023/05/22 04:58:29;;;;;;;6.63;5.90;;;;;;;32.52;61.17;100828.50;5103819;27;69612;-38
2023/05/22 05:01:02;;;;;;;6.50;5.45;;;;;;;32.57;61.33;100827.78;5097723;27;65054;-38
2023/05/22 05:03:34;;;;;;;5.80;5.30;;;;;;;32.42;61.02;100796.44;5092421;27;70742;-37
2023/05/22 05:06:07;;;;;;;5.80;5.35;;;;;;;32.61;61.07;100820.84;5098702;27;65924;-38
2023/05/22 05:08:38;;;;;;;5.88;5.47;;;;;;;32.62;61.02;100814.34;5098338;27;70030;-38
2023/05/22 05:11:10;;;;;;;6.30;5.80;;;;;;;32.63;61.07;100803.25;5094487;27;64974;-39
2023/05/22 05:13:41;;;;;;;5.43;5.13;;;;;;;32.67;61.00;100803.59;5093011;27;70177;-38
2023/05/22 05:16:12;;;;;;;5.13;4.77;;;;;;;32.70;60.93;100814.00;5097887;27;65833;-38
2023/05/22 05:18:43;;;;;;;5.53;5.03;;;;;;;32.72;60.92;100811.88;5100190;27;69680;-38
2023/05/22 05:21:15;;;;;;;5.70;5.40;;;;;;;32.71;61.11;100793.94;5098567;27;65273;-37
2023/05/22 05:23:47;;;;;;;5.45;5.07;;;;;;;32.79;60.73;100799.03;5098627;27;70666;-38
2023/05/22 05:26:20;;;;;;;5.97;5.40;;;;;;;32.81;60.62;100798.75;5118133;27;65331;-38
2023/05/22 05:28:52;;;;;;;6.20;5.78;;;;;;;32.83;60.51;100802.91;5084096;27;70800;-38
2023/05/22 05:31:23;;;;;;;6.10;5.60;;;;;;;32.84;60.75;100798.28;5110338;27;65778;-38
2023/05/22 05:34:21;;;;;;;5.57;5.18;;;;;;;32.87;60.57;100795.09;5094359;27;69326;-37
2023/05/22 05:37:13;;;;;;;5.28;4.97;;;;;;;32.89;60.62;100796.53;5093668;27;66229;-37
2023/05/22 05:39:44;;;;;;;;;;;;;;;32.62;61.13;100798.03;5110961;27;69828;-38
2023/05/22 05:42:16;;;;;;;5.60;5.20;;;;;;;32.87;60.58;100786.94;5094292;27;65868;-38
2023/05/22 05:44:49;;;;;;;5.70;5.30;;;;;;;32.94;60.50;100793.09;5075509;27;70389;-39
2023/05/22 05:47:22;;;;;;;5.13;4.82;;;;;;;32.94;60.58;100796.66;5111879;27;65663;-37
2023/05/22 05:49:54;;;;;;;5.70;5.38;;;;;;;32.98;60.42;100790.72;5099921;27;69704;-38
2023/05/22 05:52:31;;;;;;;5.57;5.18;;;;;;;32.96;60.36;100784.69;5105804;27;66836;-38
2023/05/22 05:55:09;;;;;;;6.55;5.68;;;;;;;32.90;60.53;100757.44;5101448;27;70340;-39
2023/05/22 05:57:40;;;;;;;;;;;;;;;32.73;60.46;100778.19;5102549;27;65747;-38
2023/05/22 06:00:16;;;;;;;5.13;4.80;;;;;;;33.02;60.03;100778.38;5086403;27;70547;-37
2023/05/22 06:02:49;;;;;;;5.72;5.25;;;;;;;33.06;60.29;100774.91;5112039;27;66087;-37
2023/05/22 06:05:34;;;;;;;5.65;5.32;;;;;;;33.07;60.03;100771.16;5096611;27;70668;-37
2023/05/22 06:08:28;;;;;;;5.50;5.10;;;;;;;33.10;60.07;100764.44;5095651;27;66524;-38
2023/05/22 06:11:00;;;;;;;5.40;5.00;;;;;;;33.09;59.79;100762.75;5095662;27;69681;-38
2023/05/22 06:13:36;;;;;;;6.03;5.63;;;;;;;33.10;59.74;100762.53;5064642;27;65576;-38
2023/05/22 06:16:08;;;;;;;5.30;5.00;;;;;;;33.14;59.72;100760.16;5098909;27;70010;-37
2023/05/22 06:18:39;;;;;;;5.65;5.25;;;;;;;33.15;59.89;100750.91;5101117;27;65626;-40
2023/05/22 06:21:11;;;;;;;5.90;5.45;;;;;;;32.90;59.85;100711.25;5075053;27;70716;-38
2023/05/22 06:23:42;;;;;;;5.47;5.07;;;;;;;33.19;59.52;100746.69;5089840;27;66503;-38
2023/05/22 06:26:14;;;;;;;5.47;5.07;;;;;;;33.21;59.90;100741.84;5110983;27;70397;-38
2023/05/22 06:28:46;;;;;;;5.05;4.75;;;;;;;33.18;59.78;100731.41;5096119;27;67578;-38
2023/05/22 06:31:21;;;;;;;5.60;5.20;;;;;;;33.25;59.63;100728.56;5119092;27;70675;-38
2023/05/22 06:33:55;;;;;;;5.45;5.15;;;;;;;33.23;59.41;100720.66;5097026;27;65855;-37
2023/05/22 06:36:27;;;;;;;5.25;4.95;;;;;;;33.26;59.52;100717.44;5099903;27;70447;-38
2023/05/22 06:38:57;;;;;;;5.40;4.90;;;;;;;33.30;59.20;100724.06;5097474;27;65122;-38
2023/05/22 06:41:49;;;;;;;4.95;4.65;;;;;;;33.31;59.54;100712.13;5093223;27;69439;-39
2023/05/22 06:44:19;;;;;;;4.78;4.47;;;;;;;33.35;59.23;100713.31;5087004;27;66616;-37
2023/05/22 06:46:55;;;;;;;5.13;4.75;;;;;;;33.36;59.40;100709.50;5087029;27;70511;-39
2023/05/22 06:49:27;;;;;;;6.78;5.25;;;;;;;33.40;59.09;100701.69;5104256;27;65412;-39
2023/05/22 06:51:59;;;;;;;5.10;4.80;;;;;;;33.39;59.03;100691.88;5068761;27;69851;-39
2023/05/22 06:54:36;;;;;;;5.43;4.45;;;;;;;33.38;59.08;100685.63;5086836;27;66110;-38
2023/05/22 06:57:08;;;;;;;4.60;4.30;;;;;;;33.49;58.95;100696.69;5078469;27;69991;-37
2023/05/22 06:59:39;;;;;;;4.40;4.10;;;;;;;33.41;59.30;100684.31;5079083;27;66425;-38
2023/05/22 07:02:27;;;;;;;4.15;3.85;;;;;;;33.54;58.81;100694.09;5080713;27;70488;-38
2023/05/22 07:05:16;;;;;;;4.35;4.13;;;;;;;33.56;58.96;100670.22;5090313;27;65764;-38
2023/05/22 07:07:57;;;;;;;5.20;4.70;;;;;;;33.58;58.70;100663.47;5103788;27;70852;-39
2023/05/22 07:10:28;;;;;;;4.80;4.50;;;;;;;33.63;58.50;100649.13;5100145;27;66866;-38
2023/05/22 07:13:00;;;;;;;4.85;4.55;;;;;;;33.68;58.35;100651.94;5084046;27;70752;-38
2023/05/22 07:15:33;;;;;;;4.85;4.55;;;;;;;33.72;58.59;100663.16;5087798;27;65703;-38
2023/05/22 07:18:08;;;;;;;4.63;4.32;;;;;;;33.73;58.45;100660.19;5121279;27;70511;-38
2023/05/22 07:20:41;;;;;;;5.03;4.63;;;;;;;33.76;58.43;100656.97;5110146;27;66005;-38
2023/05/22 07:23:16;;;;;;;5.15;4.80;;;;;;;33.79;58.29;100674.69;5105489;27;70976;-39
2023/05/22 07:25:47;;;;;;;4.53;4.13;;;;;;;33.80;58.35;100688.06;5100370;27;66121;-38
2023/05/22 07:28:22;;;;;;;4.50;4.20;;;;;;;33.77;58.35;100688.56;5117705;27;69732;-38
2023/05/22 07:31:02;;;;;;;5.28;4.95;;;;;;;33.87;58.14;100719.72;5083170;27;65195;-39
2023/05/22 07:33:33;;;;;;;4.93;4.63;;;;;;;33.86;58.07;100723.53;5091828;27;70187;-38
2023/05/22 07:36:05;;;;;;;5.20;4.80;;;;;;;33.79;58.33;100708.19;5109317;27;66253;-38
2023/05/22 07:38:39;;;;;;;5.00;4.65;;;;;;;33.88;57.94;100714.06;5092267;27;70628;-37
2023/05/22 07:41:10;;;;;;;5.63;4.80;;;;;;;33.83;58.07;100684.03;5081674;27;66258;-37
2023/05/22 07:43:41;;;;;;;8.77;5.13;;;;;;;33.92;58.08;100708.94;5095460;27;70457;-38
2023/05/22 07:46:16;;;;;;;4.80;4.50;;;;;;;33.90;58.42;100727.41;5096277;27;65674;-38
2023/05/22 07:49:10;;;;;;;4.90;4.50;;;;;;;33.94;58.20;100758.53;5076085;27;70244;-37
2023/05/22 07:51:43;;;;;;;4.47;4.07;;;;;;;33.97;58.38;100774.34;5093765;27;65657;-37
2023/05/22 07:54:17;;;;;;;4.90;4.50;;;;;;;33.94;58.53;100774.84;5077775;27;69911;-38
2023/05/22 07:56:52;;;;;;;7.53;4.60;;;;;;;33.95;58.15;100757.44;5090428;27;65624;-39
2023/05/22 07:59:24;;;;;;;5.65;3.80;;;;;;;33.95;58.76;100749.28;5104518;27;70315;-38
2023/05/22 08:01:59;;;;;;;4.47;4.18;;;;;;;33.92;58.99;100756.03;5097720;27;65711;-38
2023/05/22 08:04:32;;;;;;;9.30;3.97;;;;;;;33.96;59.25;100757.22;5098417;27;70558;-38
2023/05/22 08:07:03;;;;;;;6.13;4.23;;;;;;;33.93;59.50;100754.13;5090276;27;67731;-38
2023/05/22 08:09:34;;;;;;;5.10;4.60;;;;;;;33.90;59.37;100760.88;5096402;27;69795;-38
2023/05/22 08:12:06;;;;;;;5.00;4.57;;;;;;;33.86;59.70;100746.13;5099845;27;65723;-38
2023/05/22 08:14:38;;;;;;;4.07;3.78;;;;;;;33.77;59.95;100737.53;5093803;27;69048;-38
2023/05/22 08:17:09;;;;;;;4.90;4.50;;;;;;;33.84;59.65;100748.25;5098044;27;65492;-38
2023/05/22 08:19:40;;;;;;;4.63;4.22;;;;;;;33.81;59.79;100743.31;5095103;27;69991;-39
2023/05/22 08:22:11;;;;;;;4.30;3.87;;;;;;;33.83;59.82;100737.63;5095999;27;65491;-38
2023/05/22 08:24:43;;;;;;;4.38;3.97;;;;;;;33.83;59.79;100718.59;5095743;27;70255;-39
2023/05/22 08:27:14;;;;;;;4.53;4.00;;;;;;;33.78;60.10;100711.16;5102934;27;66088;-39
2023/05/22 08:29:45;;;;;;;;;;;;;;;33.48;60.56;100717.63;5099280;27;68943;-39
2023/05/22 08:32:16;;;;;;;3.88;3.58;;;;;;;33.73;60.00;100720.03;5101515;27;65596;-38
2023/05/22 08:34:47;;;;;;;4.03;3.72;;;;;;;33.72;59.79;100734.72;5095762;27;70034;-38
2023/05/22 08:37:18;;;;;;;3.80;3.53;;;;;;;33.71;60.07;100737.66;5099230;27;67545;-38
2023/05/22 08:39:50;;;;;;;4.07;3.55;;;;;;;33.67;60.33;100742.78;5100135;27;68881;-38
2023/05/22 08:42:20;;;;;;;4.10;3.80;;;;;;;33.66;60.14;100737.59;5097648;27;65798;-38
2023/05/22 08:44:54;;;;;;;6.22;3.78;;;;;;;33.62;60.45;100712.75;5096710;27;70444;-38
2023/05/22 08:47:25;;;;;;;3.80;3.50;;;;;;;33.62;60.28;100709.22;5100403;27;65981;-38
2023/05/22 08:49:58;;;;;;;5.45;4.13;;;;;;;33.54;60.67;100700.38;5097095;27;70470;-37
2023/05/22 08:52:42;;;;;;;3.30;3.10;;;;;;;33.12;60.68;100659.81;5100057;27;66393;-37
2023/05/22 08:55:15;;;;;;;4.30;4.00;;;;;;;33.49;60.49;100718.44;5092628;27;70545;-38
2023/05/22 08:57:46;;;;;;;;;;;;;;;33.17;61.95;100723.50;5110494;27;66281;-37
2023/05/22 09:00:18;;;;;;;4.63;3.22;;;;;;;33.43;61.06;100720.22;5101912;27;70281;-37
2023/05/22 09:02:48;;;;;;;;;;;;;;;33.09;62.19;100713.84;5101486;27;66099;-38
2023/05/22 09:05:20;;;;;;;4.35;3.95;;;;;;;33.27;61.45;100696.56;5109031;27;70316;-39
2023/05/22 09:07:52;;;;;;;4.23;3.50;;;;;;;33.35;61.25;100705.16;5074205;27;65829;-38
2023/05/22 09:10:27;;;;;;;3.85;3.55;;;;;;;33.30;61.13;100709.66;5109359;27;69919;-37
2023/05/22 09:13:08;;;;;;;5.95;4.00;;;;;;;32.78;61.32;100653.38;5090834;27;66548;-37
2023/05/22 09:15:40;;;;;;;3.90;3.60;;;;;;;33.23;61.38;100736.16;5106582;27;70769;-38
2023/05/22 09:18:12;;;;;;;3.58;3.28;;;;;;;33.25;61.37;100745.72;5100758;27;67828;-38
2023/05/22 09:20:43;;;;;;;4.07;3.67;;;;;;;33.22;61.61;100742.66;5102487;27;69354;-37
2023/05/22 09:23:17;;;;;;;3.97;3.27;;;;;;;33.20;61.82;100751.03;5106536;27;66200;-37
2023/05/22 09:25:48;;;;;;;7.18;3.42;;;;;;;33.18;61.68;100761.31;5109482;27;70415;-37
2023/05/22 09:28:19;;;;;;;8.87;4.60;;;;;;;32.93;63.47;100754.25;5100766;27;67780;-38
2023/05/22 09:30:52;;;;;;;6.35;4.35;;;;;;;32.88;65.29;100770.44;5090553;27;70238;-38
2023/05/22 09:33:23;;;;;;;9.63;4.72;;;;;;;32.81;66.35;100771.59;5115413;27;66679;-38
2023/05/22 09:35:54;;;;;;;;;;;;;;;32.54;67.91;100765.78;5096925;27;70753;-38
2023/05/22 09:38:30;;;;;;;5.10;4.70;;;;;;;32.70;67.80;100757.78;5088375;27;66805;-38
2023/05/22 09:41:01;;;;;;;7.28;4.60;;;;;;;32.62;68.13;100752.69;5086466;27;70038;-39
2023/05/22 09:43:33;;;;;;;6.43;4.45;;;;;;;32.49;68.54;100726.59;5091875;27;66433;-39
2023/05/22 09:46:04;;;;;;;6.40;4.65;;;;;;;32.59;68.80;100757.78;5080338;27;69347;-39
2023/05/22 09:48:36;;;;;;;9.13;4.60;;;;;;;32.58;68.95;100767.81;5108937;27;66288;-38
2023/05/22 09:51:08;;;;;;;4.75;4.30;;;;;;;32.53;69.17;100775.81;5088203;27;69123;-38
2023/05/22 09:53:43;;;;;;;4.70;4.30;;;;;;;32.42;69.27;100769.28;5086607;27;66743;-38
2023/05/22 09:56:16;;;;;;;4.95;4.47;;;;;;;32.47;69.54;100799.31;5101477;27;70577;-38
2023/05/22 09:59:08;;;;;;;4.82;4.38;;;;;;;31.96;69.44;100710.31;5110668;27;66696;-38
2023/05/22 10:01:41;;;;;;;5.88;4.72;;;;;;;31.84;69.74;100702.09;5105177;27;70943;-38
2023/05/22 10:04:13;;;;;;;5.53;5.03;;;;;;;32.47;69.77;100804.75;5092215;27;66047;-37
2023/05/22 10:06:52;;;;;;;9.13;5.30;;;;;;;32.36;69.75;100789.22;5105518;27;70396;-39
2023/05/22 10:09:29;;;;;;;6.88;5.28;;;;;;;32.31;69.87;100793.69;5079571;27;65931;-39
2023/05/22 10:12:05;;;;;;;11.82;5.60;;;;;;;31.93;70.58;100733.31;5103990;27;70105;-39
2023/05/22 10:14:37;;;;;;;8.23;5.57;;;;;;;32.36;70.63;100808.22;5112158;27;66718;-39
2023/05/22 10:17:11;;;;;;;7.38;5.03;;;;;;;32.39;70.68;100818.63;5107521;27;69132;-39
2023/05/22 10:19:42;;;;;;;16.42;5.72;;;;;;;32.43;71.16;100805.41;5109152;27;67348;-37
2023/05/22 10:22:19;;;;;;;10.05;5.75;;;;;;;32.38;71.38;100795.25;5101919;27;70095;-38
2023/05/22 10:24:51;;;;;;;6.97;6.43;;;;;;;32.36;71.45;100797.38;5097707;27;66106;-38
2023/05/22 10:27:40;;;;;;;13.80;5.80;;;;;;;32.40;71.70;100798.56;5101358;27;69196;-38
2023/05/22 10:30:23;;;;;;;7.00;6.32;;;;;;;32.38;71.65;100794.44;5086339;27;66495;-39
2023/05/22 10:33:21;;;;;;;9.47;7.37;;;;;;;32.28;71.51;100792.28;5098623;27;70483;-39
2023/05/22 10:36:03;;;;;;;10.52;6.13;;;;;;;32.36;71.86;100783.81;5101846;27;66241;-38
2023/05/22 10:38:55;;;;;;;7.97;6.32;;;;;;;32.30;71.97;100776.59;5112370;27;69907;-38
2023/05/22 10:41:26;;;;;;;7.47;6.85;;;;;;;32.28;71.80;100782.25;5087134;27;66382;-38
2023/05/22 10:43:57;;;;;;;11.55;7.05;;;;;;;32.25;71.67;100773.75;5112545;27;69771;-39
2023/05/22 10:46:35;;;;;;;7.63;6.88;;;;;;;31.91;72.06;100721.88;5087748;27;66508;-39
2023/05/22 10:49:07;;;;;;;9.20;7.05;;;;;;;32.33;71.74;100786.16;5102561;27;69012;-38
2023/05/22 10:51:37;;;;;;;;;;;;;;;32.10;72.41;100776.06;5079741;27;65961;-39
2023/05/22 10:54:08;;;;;;;8.73;7.55;;;;;;;32.25;72.51;100780.00;5105803;27;70549;-38
2023/05/22 10:56:40;;;;;;;13.35;7.47;;;;;;;32.27;72.33;100777.06;5074180;27;66341;-39
2023/05/22 10:59:11;;;;;;;8.40;7.60;;;;;;;32.26;72.72;100792.53;5095351;27;70195;-37
2023/05/22 11:01:41;;;;;;;11.38;8.40;;;;;;;32.18;72.83;100756.72;5102456;27;65899;-40
2023/05/22 11:04:19;;;;;;;8.57;7.88;;;;;;;32.29;72.98;100774.94;5101430;27;70465;-38
2023/05/22 11:07:04;;;;;;;10.07;8.18;;;;;;;31.91;73.21;100719.16;5101723;27;65344;-39
2023/05/22 11:09:47;;;;;;;10.90;9.95;;;;;;;32.30;73.51;100781.19;5103756;27;69683;-39
2023/05/22 11:12:27;;;;;;;17.17;10.35;;;;;;;32.28;73.57;100779.53;5100747;27;65951;-39
2023/05/22 11:15:07;;;;;;;15.43;10.73;;;;;;;32.28;73.63;100781.41;5109810;27;69513;-38
2023/05/22 11:17:48;;;;;;;13.77;10.32;;;;;;;32.30;73.35;100775.78;5107741;27;65489;-38
2023/05/22 11:20:21;;;;;;;13.73;10.82;;;;;;;32.27;73.42;100793.34;5103129;27;69756;-38
2023/05/22 11:23:05;;;;;;;14.88;10.07;;;;;;;32.20;74.26;100789.88;5094029;27;65807;-38
2023/05/22 11:25:39;;;;;;;13.90;10.38;;;;;;;32.23;74.81;100813.84;5102775;27;70433;-37
2023/05/22 11:28:11;;;;;;;13.70;10.32;;;;;;;32.19;74.93;100813.50;5102053;27;66659;-39
2023/05/22 11:30:43;;;;;;;8.38;7.78;;;;;;;32.30;73.64;100838.19;5090898;27;69449;-39
2023/05/22 11:33:14;;;;;;;6.90;6.40;;;;;;;32.34;73.28;100851.06;5104084;27;66036;-39
2023/05/22 11:35:50;;;;;;;7.63;7.00;;;;;;;32.39;72.52;100862.06;5097053;27;70182;-37
2023/05/22 11:38:21;;;;;;;8.35;6.93;;;;;;;32.44;72.65;100861.38;5075967;27;65899;-39
2023/05/22 11:40:53;;;;;;;7.40;6.88;;;;;;;32.44;72.36;100881.22;5061153;28;69939;-38
2023/05/22 11:43:33;;;;;;;7.90;7.25;;;;;;;32.40;72.76;100885.44;5021994;28;65874;-38
2023/05/22 11:46:09;;;;;;;8.00;7.40;;;;;;;32.53;72.12;100910.78;5080293;27;70642;-38
2023/05/22 11:48:41;;;;;;;8.15;7.40;;;;;;;32.40;71.89;100895.47;5081352;27;66031;-38
2023/05/22 11:51:12;;;;;;;7.93;7.43;;;;;;;32.56;72.28;100921.19;5079760;27;70400;-38
2023/05/22 11:53:43;;;;;;;8.00;7.25;;;;;;;32.55;72.14;100933.94;5085086;27;66082;-38
2023/05/22 11:56:14;;;;;;;8.07;7.43;;;;;;;32.55;72.23;100936.66;5074682;27;70886;-38